sensor_id;sensor_type;location;lat;lon;timestamp;P1;durP1;ratioP1;P2;durP2;ratioP2
21243;SDS011;10780;50.942;4.028;2023-04-03T00:01:31;25.85;;;18.85;;
21243;SDS011;10780;50.942;4.028;2023-04-03T00:03:57;29.08;;;19.95;;
21243;SDS011;10780;50.942;4.028;2023-04-03T00:06:23;24.83;;;17.85;;
21243;SDS011;10780;50.942;4.028;2023-04-03T00:08:50;25.55;;;17.63;;
21243;SDS011;10780;50.942;4.028;2023-04-03T00:11:16;27.05;;;18.83;;
21243;SDS011;10780;50.942;4.028;2023-04-03T00:13:42;27.45;;;18.75;;
21243;SDS011;10780;50.942;4.028;2023-04-03T00:16:08;24.48;;;18.23;;
21243;SDS011;10780;50.942;4.028;2023-04-03T00:18:35;24.38;;;18.40;;
21243;SDS011;10780;50.942;4.028;2023-04-03T00:21:02;29.42;;;18.95;;
21243;SDS011;10780;50.942;4.028;2023-04-03T00:23:28;27.38;;;18.65;;
21243;SDS011;10780;50.942;4.028;2023-04-03T00:25:53;26.33;;;17.63;;
21243;SDS011;10780;50.942;4.028;2023-04-03T00:28:20;27.05;;;17.08;;
21243;SDS011;10780;50.942;4.028;2023-04-03T00:30:46;26.55;;;17.30;;
21243;SDS011;10780;50.942;4.028;2023-04-03T00:33:14;24.60;;;17.75;;
21243;SDS011;10780;50.942;4.028;2023-04-03T00:35:39;27.33;;;17.27;;
21243;SDS011;10780;50.942;4.028;2023-04-03T00:38:05;25.20;;;17.27;;
21243;SDS011;10780;50.942;4.028;2023-04-03T00:40:35;25.58;;;17.45;;
21243;SDS011;10780;50.942;4.028;2023-04-03T00:43:08;24.40;;;16.40;;
21243;SDS011;10780;50.942;4.028;2023-04-03T00:45:38;22.38;;;16.45;;
21243;SDS011;10780;50.942;4.028;2023-04-03T00:48:06;23.35;;;15.95;;
21243;SDS011;10780;50.942;4.028;2023-04-03T00:50:38;23.45;;;16.02;;
21243;SDS011;10780;50.942;4.028;2023-04-03T00:53:07;23.02;;;16.13;;
21243;SDS011;10780;50.942;4.028;2023-04-03T00:55:37;22.70;;;16.00;;
21243;SDS011;10780;50.942;4.028;2023-04-03T00:58:03;21.58;;;15.82;;
21243;SDS011;10780;50.942;4.028;2023-04-03T01:00:32;25.17;;;16.42;;
21243;SDS011;10780;50.942;4.028;2023-04-03T01:02:58;22.58;;;15.73;;
21243;SDS011;10780;50.942;4.028;2023-04-03T01:05:23;23.80;;;16.48;;
21243;SDS011;10780;50.942;4.028;2023-04-03T01:07:49;23.08;;;15.85;;
21243;SDS011;10780;50.942;4.028;2023-04-03T01:10:17;19.83;;;14.02;;
21243;SDS011;10780;50.942;4.028;2023-04-03T01:12:46;20.60;;;14.27;;
21243;SDS011;10780;50.942;4.028;2023-04-03T01:15:14;20.70;;;14.18;;
21243;SDS011;10780;50.942;4.028;2023-04-03T01:17:44;19.35;;;13.45;;
21243;SDS011;10780;50.942;4.028;2023-04-03T01:23:12;19.70;;;13.05;;
21243;SDS011;10780;50.942;4.028;2023-04-03T01:25:56;19.08;;;13.45;;
21243;SDS011;10780;50.942;4.028;2023-04-03T01:28:24;21.13;;;13.57;;
21243;SDS011;10780;50.942;4.028;2023-04-03T01:33:47;20.58;;;13.40;;
21243;SDS011;10780;50.942;4.028;2023-04-03T01:36:16;18.48;;;12.52;;
21243;SDS011;10780;50.942;4.028;2023-04-03T01:38:43;19.02;;;13.52;;
21243;SDS011;10780;50.942;4.028;2023-04-03T01:41:09;20.63;;;13.95;;
21243;SDS011;10780;50.942;4.028;2023-04-03T01:43:34;18.85;;;13.57;;
21243;SDS011;10780;50.942;4.028;2023-04-03T01:46:00;22.63;;;14.27;;
21243;SDS011;10780;50.942;4.028;2023-04-03T01:48:26;18.38;;;13.57;;
21243;SDS011;10780;50.942;4.028;2023-04-03T01:50:51;18.30;;;12.80;;
21243;SDS011;10780;50.942;4.028;2023-04-03T01:53:17;20.33;;;13.65;;
21243;SDS011;10780;50.942;4.028;2023-04-03T01:55:42;18.20;;;13.65;;
21243;SDS011;10780;50.942;4.028;2023-04-03T01:58:08;16.70;;;12.45;;
21243;SDS011;10780;50.942;4.028;2023-04-03T02:00:34;17.98;;;12.93;;
21243;SDS011;10780;50.942;4.028;2023-04-03T02:03:00;16.10;;;12.45;;
21243;SDS011;10780;50.942;4.028;2023-04-03T02:05:27;19.60;;;12.40;;
21243;SDS011;10780;50.942;4.028;2023-04-03T02:07:53;15.68;;;12.77;;
21243;SDS011;10780;50.942;4.028;2023-04-03T02:10:18;18.25;;;12.07;;
21243;SDS011;10780;50.942;4.028;2023-04-03T02:12:44;15.45;;;12.00;;
21243;SDS011;10780;50.942;4.028;2023-04-03T02:15:10;16.95;;;11.75;;
21243;SDS011;10780;50.942;4.028;2023-04-03T02:17:35;18.58;;;11.82;;
21243;SDS011;10780;50.942;4.028;2023-04-03T02:20:02;18.65;;;12.25;;
21243;SDS011;10780;50.942;4.028;2023-04-03T02:22:28;16.08;;;11.30;;
21243;SDS011;10780;50.942;4.028;2023-04-03T02:24:54;16.80;;;10.98;;
21243;SDS011;10780;50.942;4.028;2023-04-03T02:27:20;17.92;;;11.27;;
21243;SDS011;10780;50.942;4.028;2023-04-03T02:29:45;14.98;;;10.50;;
21243;SDS011;10780;50.942;4.028;2023-04-03T02:32:11;13.65;;;9.80;;
21243;SDS011;10780;50.942;4.028;2023-04-03T02:34:36;15.20;;;9.85;;
21243;SDS011;10780;50.942;4.028;2023-04-03T02:37:02;11.98;;;9.38;;
21243;SDS011;10780;50.942;4.028;2023-04-03T02:39:28;13.07;;;10.10;;
21243;SDS011;10780;50.942;4.028;2023-04-03T02:41:53;10.88;;;8.63;;
21243;SDS011;10780;50.942;4.028;2023-04-03T02:44:19;12.32;;;9.25;;
21243;SDS011;10780;50.942;4.028;2023-04-03T02:46:44;12.13;;;9.15;;
21243;SDS011;10780;50.942;4.028;2023-04-03T02:49:10;14.43;;;9.68;;
21243;SDS011;10780;50.942;4.028;2023-04-03T02:51:36;11.95;;;8.38;;
21243;SDS011;10780;50.942;4.028;2023-04-03T02:54:01;15.43;;;8.93;;
21243;SDS011;10780;50.942;4.028;2023-04-03T02:56:27;12.13;;;9.07;;
21243;SDS011;10780;50.942;4.028;2023-04-03T02:58:53;13.00;;;8.93;;
21243;SDS011;10780;50.942;4.028;2023-04-03T03:01:19;13.23;;;9.30;;
21243;SDS011;10780;50.942;4.028;2023-04-03T03:03:44;12.57;;;8.38;;
21243;SDS011;10780;50.942;4.028;2023-04-03T03:06:11;12.63;;;8.90;;
21243;SDS011;10780;50.942;4.028;2023-04-03T03:08:38;9.60;;;7.93;;
21243;SDS011;10780;50.942;4.028;2023-04-03T03:11:05;15.18;;;9.63;;
21243;SDS011;10780;50.942;4.028;2023-04-03T03:13:31;15.18;;;9.98;;
21243;SDS011;10780;50.942;4.028;2023-04-03T03:15:57;13.80;;;9.27;;
21243;SDS011;10780;50.942;4.028;2023-04-03T03:18:23;13.45;;;9.02;;
21243;SDS011;10780;50.942;4.028;2023-04-03T03:20:52;14.48;;;9.30;;
21243;SDS011;10780;50.942;4.028;2023-04-03T03:23:18;12.77;;;9.02;;
21243;SDS011;10780;50.942;4.028;2023-04-03T03:25:44;14.35;;;10.15;;
21243;SDS011;10780;50.942;4.028;2023-04-03T03:28:09;15.52;;;9.93;;
21243;SDS011;10780;50.942;4.028;2023-04-03T03:30:36;14.15;;;9.55;;
21243;SDS011;10780;50.942;4.028;2023-04-03T03:33:02;13.15;;;8.95;;
21243;SDS011;10780;50.942;4.028;2023-04-03T03:35:27;13.65;;;9.13;;
21243;SDS011;10780;50.942;4.028;2023-04-03T03:37:53;12.43;;;9.10;;
21243;SDS011;10780;50.942;4.028;2023-04-03T03:40:19;11.48;;;9.00;;
21243;SDS011;10780;50.942;4.028;2023-04-03T03:42:45;12.73;;;9.48;;
21243;SDS011;10780;50.942;4.028;2023-04-03T03:45:10;13.60;;;9.38;;
21243;SDS011;10780;50.942;4.028;2023-04-03T03:47:36;11.52;;;9.40;;
21243;SDS011;10780;50.942;4.028;2023-04-03T03:50:02;14.93;;;10.20;;
21243;SDS011;10780;50.942;4.028;2023-04-03T03:52:28;10.95;;;9.20;;
21243;SDS011;10780;50.942;4.028;2023-04-03T03:54:55;14.23;;;9.85;;
21243;SDS011;10780;50.942;4.028;2023-04-03T03:57:21;12.82;;;10.07;;
21243;SDS011;10780;50.942;4.028;2023-04-03T03:59:46;13.32;;;9.65;;
21243;SDS011;10780;50.942;4.028;2023-04-03T04:02:13;13.50;;;9.95;;
21243;SDS011;10780;50.942;4.028;2023-04-03T04:04:39;13.52;;;8.52;;
21243;SDS011;10780;50.942;4.028;2023-04-03T04:07:05;13.10;;;9.02;;
21243;SDS011;10780;50.942;4.028;2023-04-03T04:09:30;15.93;;;10.32;;
21243;SDS011;10780;50.942;4.028;2023-04-03T04:11:56;12.15;;;9.57;;
21243;SDS011;10780;50.942;4.028;2023-04-03T04:14:22;15.52;;;9.75;;
21243;SDS011;10780;50.942;4.028;2023-04-03T04:16:48;15.77;;;10.68;;
21243;SDS011;10780;50.942;4.028;2023-04-03T04:19:13;13.55;;;9.07;;
21243;SDS011;10780;50.942;4.028;2023-04-03T04:21:39;14.23;;;9.95;;
21243;SDS011;10780;50.942;4.028;2023-04-03T04:24:06;16.52;;;10.35;;
21243;SDS011;10780;50.942;4.028;2023-04-03T04:26:33;14.07;;;10.35;;
21243;SDS011;10780;50.942;4.028;2023-04-03T04:28:59;12.32;;;9.02;;
21243;SDS011;10780;50.942;4.028;2023-04-03T04:31:25;14.65;;;10.32;;
21243;SDS011;10780;50.942;4.028;2023-04-03T04:33:51;13.85;;;10.23;;
21243;SDS011;10780;50.942;4.028;2023-04-03T04:36:17;15.13;;;10.60;;
21243;SDS011;10780;50.942;4.028;2023-04-03T04:38:43;17.90;;;10.25;;
21243;SDS011;10780;50.942;4.028;2023-04-03T04:41:08;16.13;;;10.48;;
21243;SDS011;10780;50.942;4.028;2023-04-03T04:43:34;16.73;;;11.20;;
21243;SDS011;10780;50.942;4.028;2023-04-03T04:46:04;13.23;;;10.48;;
21243;SDS011;10780;50.942;4.028;2023-04-03T04:48:31;15.73;;;10.55;;
21243;SDS011;10780;50.942;4.028;2023-04-03T04:50:56;14.48;;;10.98;;
21243;SDS011;10780;50.942;4.028;2023-04-03T04:53:22;17.73;;;10.82;;
21243;SDS011;10780;50.942;4.028;2023-04-03T04:55:48;14.88;;;10.55;;
21243;SDS011;10780;50.942;4.028;2023-04-03T04:58:14;15.20;;;10.85;;
21243;SDS011;10780;50.942;4.028;2023-04-03T05:00:40;16.45;;;11.10;;
21243;SDS011;10780;50.942;4.028;2023-04-03T05:03:05;14.95;;;10.88;;
21243;SDS011;10780;50.942;4.028;2023-04-03T05:05:31;14.30;;;10.65;;
21243;SDS011;10780;50.942;4.028;2023-04-03T05:07:57;17.98;;;10.57;;
21243;SDS011;10780;50.942;4.028;2023-04-03T05:10:22;17.08;;;11.38;;
21243;SDS011;10780;50.942;4.028;2023-04-03T05:12:48;13.63;;;10.23;;
21243;SDS011;10780;50.942;4.028;2023-04-03T05:15:14;13.18;;;10.63;;
21243;SDS011;10780;50.942;4.028;2023-04-03T05:17:39;19.35;;;10.85;;
21243;SDS011;10780;50.942;4.028;2023-04-03T05:20:05;15.38;;;10.25;;
21243;SDS011;10780;50.942;4.028;2023-04-03T05:22:31;14.55;;;10.60;;
21243;SDS011;10780;50.942;4.028;2023-04-03T05:24:58;19.00;;;10.60;;
21243;SDS011;10780;50.942;4.028;2023-04-03T05:27:23;16.83;;;11.30;;
21243;SDS011;10780;50.942;4.028;2023-04-03T05:29:49;17.27;;;11.13;;
21243;SDS011;10780;50.942;4.028;2023-04-03T05:32:15;17.15;;;11.32;;
21243;SDS011;10780;50.942;4.028;2023-04-03T05:34:41;15.98;;;10.88;;
21243;SDS011;10780;50.942;4.028;2023-04-03T05:37:07;14.70;;;10.98;;
21243;SDS011;10780;50.942;4.028;2023-04-03T05:39:33;14.93;;;11.02;;
21243;SDS011;10780;50.942;4.028;2023-04-03T05:41:59;17.67;;;10.82;;
21243;SDS011;10780;50.942;4.028;2023-04-03T05:44:24;14.77;;;11.38;;
21243;SDS011;10780;50.942;4.028;2023-04-03T05:46:50;16.40;;;11.50;;
21243;SDS011;10780;50.942;4.028;2023-04-03T05:49:16;16.33;;;11.07;;
21243;SDS011;10780;50.942;4.028;2023-04-03T05:51:41;16.10;;;11.38;;
21243;SDS011;10780;50.942;4.028;2023-04-03T05:56:42;15.00;;;11.90;;
21243;SDS011;10780;50.942;4.028;2023-04-03T05:59:08;15.95;;;11.30;;
21243;SDS011;10780;50.942;4.028;2023-04-03T06:01:34;18.00;;;11.13;;
21243;SDS011;10780;50.942;4.028;2023-04-03T06:04:00;17.55;;;12.82;;
21243;SDS011;10780;50.942;4.028;2023-04-03T06:06:25;14.38;;;11.05;;
21243;SDS011;10780;50.942;4.028;2023-04-03T06:08:51;18.65;;;12.45;;
21243;SDS011;10780;50.942;4.028;2023-04-03T06:11:17;17.05;;;12.30;;
21243;SDS011;10780;50.942;4.028;2023-04-03T06:13:42;19.20;;;12.95;;
21243;SDS011;10780;50.942;4.028;2023-04-03T06:16:10;16.23;;;12.05;;
21243;SDS011;10780;50.942;4.028;2023-04-03T06:18:40;16.08;;;12.15;;
21243;SDS011;10780;50.942;4.028;2023-04-03T06:21:06;17.77;;;12.88;;
21243;SDS011;10780;50.942;4.028;2023-04-03T06:23:32;15.93;;;11.88;;
21243;SDS011;10780;50.942;4.028;2023-04-03T06:25:58;15.50;;;11.50;;
21243;SDS011;10780;50.942;4.028;2023-04-03T06:28:24;16.60;;;12.48;;
21243;SDS011;10780;50.942;4.028;2023-04-03T06:30:50;21.05;;;12.18;;
21243;SDS011;10780;50.942;4.028;2023-04-03T06:33:16;17.70;;;12.40;;
21243;SDS011;10780;50.942;4.028;2023-04-03T06:35:41;18.73;;;12.48;;
21243;SDS011;10780;50.942;4.028;2023-04-03T06:38:07;16.10;;;11.73;;
21243;SDS011;10780;50.942;4.028;2023-04-03T06:40:34;18.77;;;11.98;;
21243;SDS011;10780;50.942;4.028;2023-04-03T06:43:00;16.00;;;11.85;;
21243;SDS011;10780;50.942;4.028;2023-04-03T06:45:26;17.08;;;12.32;;
21243;SDS011;10780;50.942;4.028;2023-04-03T06:47:52;16.50;;;11.85;;
21243;SDS011;10780;50.942;4.028;2023-04-03T06:50:18;17.42;;;12.27;;
21243;SDS011;10780;50.942;4.028;2023-04-03T06:52:44;17.52;;;12.55;;
21243;SDS011;10780;50.942;4.028;2023-04-03T06:55:10;15.10;;;11.57;;
21243;SDS011;10780;50.942;4.028;2023-04-03T06:57:36;17.45;;;12.00;;
21243;SDS011;10780;50.942;4.028;2023-04-03T07:00:03;18.42;;;11.85;;
21243;SDS011;10780;50.942;4.028;2023-04-03T07:02:30;14.68;;;11.88;;
21243;SDS011;10780;50.942;4.028;2023-04-03T07:04:56;18.40;;;12.20;;
21243;SDS011;10780;50.942;4.028;2023-04-03T07:07:21;16.27;;;11.77;;
21243;SDS011;10780;50.942;4.028;2023-04-03T07:09:47;13.95;;;11.27;;
21243;SDS011;10780;50.942;4.028;2023-04-03T07:12:13;16.23;;;12.52;;
21243;SDS011;10780;50.942;4.028;2023-04-03T07:14:39;15.52;;;11.77;;
21243;SDS011;10780;50.942;4.028;2023-04-03T07:17:04;13.50;;;12.05;;
21243;SDS011;10780;50.942;4.028;2023-04-03T07:19:30;17.73;;;12.38;;
21243;SDS011;10780;50.942;4.028;2023-04-03T07:21:56;18.58;;;11.68;;
21243;SDS011;10780;50.942;4.028;2023-04-03T07:24:22;16.27;;;12.35;;
21243;SDS011;10780;50.942;4.028;2023-04-03T07:26:51;15.27;;;11.68;;
21243;SDS011;10780;50.942;4.028;2023-04-03T07:29:18;17.25;;;11.75;;
21243;SDS011;10780;50.942;4.028;2023-04-03T07:31:45;18.67;;;12.35;;
21243;SDS011;10780;50.942;4.028;2023-04-03T07:34:10;19.17;;;12.32;;
21243;SDS011;10780;50.942;4.028;2023-04-03T07:36:36;18.92;;;12.65;;
21243;SDS011;10780;50.942;4.028;2023-04-03T07:39:02;18.35;;;12.30;;
21243;SDS011;10780;50.942;4.028;2023-04-03T07:41:28;14.27;;;12.20;;
21243;SDS011;10780;50.942;4.028;2023-04-03T07:43:55;14.82;;;11.25;;
21243;SDS011;10780;50.942;4.028;2023-04-03T07:46:21;14.00;;;11.13;;
21243;SDS011;10780;50.942;4.028;2023-04-03T07:48:47;17.95;;;11.73;;
21243;SDS011;10780;50.942;4.028;2023-04-03T07:51:13;17.52;;;10.77;;
21243;SDS011;10780;50.942;4.028;2023-04-03T07:53:39;13.25;;;11.27;;
21243;SDS011;10780;50.942;4.028;2023-04-03T07:56:05;13.50;;;10.40;;
21243;SDS011;10780;50.942;4.028;2023-04-03T07:58:32;11.75;;;9.18;;
21243;SDS011;10780;50.942;4.028;2023-04-03T08:00:58;12.15;;;9.27;;
21243;SDS011;10780;50.942;4.028;2023-04-03T08:03:24;15.10;;;8.75;;
21243;SDS011;10780;50.942;4.028;2023-04-03T08:05:50;13.82;;;8.93;;
21243;SDS011;10780;50.942;4.028;2023-04-03T08:08:18;10.75;;;8.85;;
21243;SDS011;10780;50.942;4.028;2023-04-03T08:10:50;12.85;;;8.95;;
21243;SDS011;10780;50.942;4.028;2023-04-03T08:13:17;11.40;;;8.40;;
21243;SDS011;10780;50.942;4.028;2023-04-03T08:15:43;13.02;;;8.80;;
21243;SDS011;10780;50.942;4.028;2023-04-03T08:18:08;11.00;;;8.30;;
21243;SDS011;10780;50.942;4.028;2023-04-03T08:20:34;14.07;;;9.07;;
21243;SDS011;10780;50.942;4.028;2023-04-03T08:23:00;10.50;;;8.85;;
21243;SDS011;10780;50.942;4.028;2023-04-03T08:25:25;11.40;;;8.52;;
21243;SDS011;10780;50.942;4.028;2023-04-03T08:27:51;15.15;;;9.25;;
21243;SDS011;10780;50.942;4.028;2023-04-03T08:30:17;12.25;;;8.70;;
21243;SDS011;10780;50.942;4.028;2023-04-03T08:32:42;12.05;;;8.90;;
21243;SDS011;10780;50.942;4.028;2023-04-03T08:35:09;13.18;;;8.35;;
21243;SDS011;10780;50.942;4.028;2023-04-03T08:37:35;10.07;;;8.02;;
21243;SDS011;10780;50.942;4.028;2023-04-03T08:40:03;13.90;;;8.00;;
21243;SDS011;10780;50.942;4.028;2023-04-03T08:45:19;10.32;;;7.13;;
21243;SDS011;10780;50.942;4.028;2023-04-03T08:48:04;9.85;;;7.68;;
21243;SDS011;10780;50.942;4.028;2023-04-03T08:50:38;8.25;;;6.75;;
21243;SDS011;10780;50.942;4.028;2023-04-03T08:53:11;8.77;;;7.32;;
21243;SDS011;10780;50.942;4.028;2023-04-03T08:55:45;10.07;;;7.55;;
21243;SDS011;10780;50.942;4.028;2023-04-03T08:58:12;10.73;;;7.55;;
21243;SDS011;10780;50.942;4.028;2023-04-03T09:00:55;10.63;;;7.43;;
21243;SDS011;10780;50.942;4.028;2023-04-03T09:03:28;9.23;;;7.50;;
21243;SDS011;10780;50.942;4.028;2023-04-03T09:06:06;9.90;;;7.60;;
21243;SDS011;10780;50.942;4.028;2023-04-03T09:08:50;8.18;;;7.28;;
21243;SDS011;10780;50.942;4.028;2023-04-03T09:20:45;9.32;;;6.15;;
21243;SDS011;10780;50.942;4.028;2023-04-03T09:26:14;9.82;;;5.47;;
21243;SDS011;10780;50.942;4.028;2023-04-03T09:28:44;6.40;;;5.25;;
21243;SDS011;10780;50.942;4.028;2023-04-03T09:33:49;9.00;;;5.00;;
21243;SDS011;10780;50.942;4.028;2023-04-03T09:39:03;8.20;;;4.80;;
21243;SDS011;10780;50.942;4.028;2023-04-03T09:41:30;8.45;;;4.65;;
21243;SDS011;10780;50.942;4.028;2023-04-03T09:43:58;9.60;;;4.78;;
21243;SDS011;10780;50.942;4.028;2023-04-03T09:46:30;7.47;;;4.35;;
21243;SDS011;10780;50.942;4.028;2023-04-03T09:48:59;9.55;;;4.40;;
21243;SDS011;10780;50.942;4.028;2023-04-03T09:51:29;6.53;;;4.13;;
21243;SDS011;10780;50.942;4.028;2023-04-03T09:53:56;6.78;;;3.97;;
21243;SDS011;10780;50.942;4.028;2023-04-03T10:04:14;8.98;;;4.53;;
21243;SDS011;10780;50.942;4.028;2023-04-03T10:06:43;7.28;;;4.30;;
21243;SDS011;10780;50.942;4.028;2023-04-03T10:09:19;5.63;;;4.30;;
21243;SDS011;10780;50.942;4.028;2023-04-03T10:14:35;4.13;;;3.70;;
21243;SDS011;10780;50.942;4.028;2023-04-03T10:17:04;6.05;;;3.92;;
21243;SDS011;10780;50.942;4.028;2023-04-03T10:19:53;5.18;;;3.70;;
21243;SDS011;10780;50.942;4.028;2023-04-03T10:22:30;8.40;;;4.07;;
21243;SDS011;10780;50.942;4.028;2023-04-03T10:25:21;4.78;;;3.58;;
21243;SDS011;10780;50.942;4.028;2023-04-03T10:38:59;5.68;;;3.50;;
21243;SDS011;10780;50.942;4.028;2023-04-03T10:47:33;4.35;;;2.88;;
21243;SDS011;10780;50.942;4.028;2023-04-03T10:53:00;4.65;;;2.60;;
21243;SDS011;10780;50.942;4.028;2023-04-03T10:57:52;3.47;;;2.70;;
21243;SDS011;10780;50.942;4.028;2023-04-03T11:00:28;6.28;;;2.63;;
21243;SDS011;10780;50.942;4.028;2023-04-03T11:02:56;3.17;;;2.10;;
21243;SDS011;10780;50.942;4.028;2023-04-03T11:05:32;5.63;;;2.30;;
21243;SDS011;10780;50.942;4.028;2023-04-03T11:08:33;5.38;;;2.75;;
21243;SDS011;10780;50.942;4.028;2023-04-03T11:11:15;5.95;;;2.40;;
21243;SDS011;10780;50.942;4.028;2023-04-03T11:13:49;4.53;;;2.55;;
21243;SDS011;10780;50.942;4.028;2023-04-03T11:16:35;5.03;;;2.78;;
21243;SDS011;10780;50.942;4.028;2023-04-03T11:19:20;3.05;;;2.30;;
21243;SDS011;10780;50.942;4.028;2023-04-03T11:21:57;5.90;;;2.20;;
21243;SDS011;10780;50.942;4.028;2023-04-03T11:24:29;5.95;;;2.50;;
21243;SDS011;10780;50.942;4.028;2023-04-03T11:26:58;6.32;;;2.65;;
21243;SDS011;10780;50.942;4.028;2023-04-03T11:29:35;4.35;;;2.47;;
21243;SDS011;10780;50.942;4.028;2023-04-03T11:34:52;2.92;;;2.38;;
21243;SDS011;10780;50.942;4.028;2023-04-03T11:37:31;4.70;;;2.28;;
21243;SDS011;10780;50.942;4.028;2023-04-03T11:40:00;3.30;;;2.22;;
21243;SDS011;10780;50.942;4.028;2023-04-03T11:42:54;2.85;;;2.10;;
21243;SDS011;10780;50.942;4.028;2023-04-03T11:50:46;3.25;;;2.15;;
21243;SDS011;10780;50.942;4.028;2023-04-03T12:00:54;4.75;;;2.15;;
21243;SDS011;10780;50.942;4.028;2023-04-03T12:13:34;6.25;;;2.45;;
21243;SDS011;10780;50.942;4.028;2023-04-03T12:16:02;4.50;;;2.15;;
21243;SDS011;10780;50.942;4.028;2023-04-03T12:18:40;3.92;;;2.25;;
21243;SDS011;10780;50.942;4.028;2023-04-03T12:21:07;8.75;;;2.05;;
21243;SDS011;10780;50.942;4.028;2023-04-03T12:23:35;4.05;;;1.83;;
21243;SDS011;10780;50.942;4.028;2023-04-03T12:26:21;3.03;;;2.13;;
21243;SDS011;10780;50.942;4.028;2023-04-03T12:28:51;2.67;;;1.80;;
21243;SDS011;10780;50.942;4.028;2023-04-03T12:31:20;2.20;;;2.00;;
21243;SDS011;10780;50.942;4.028;2023-04-03T12:39:33;3.67;;;1.90;;
21243;SDS011;10780;50.942;4.028;2023-04-03T12:42:04;3.03;;;1.73;;
21243;SDS011;10780;50.942;4.028;2023-04-03T12:45:02;4.40;;;1.80;;
21243;SDS011;10780;50.942;4.028;2023-04-03T12:47:41;5.45;;;2.03;;
21243;SDS011;10780;50.942;4.028;2023-04-03T12:50:22;5.82;;;2.20;;
21243;SDS011;10780;50.942;4.028;2023-04-03T12:52:57;2.42;;;1.92;;
21243;SDS011;10780;50.942;4.028;2023-04-03T12:55:26;3.78;;;1.73;;
21243;SDS011;10780;50.942;4.028;2023-04-03T12:57:52;3.05;;;1.50;;
21243;SDS011;10780;50.942;4.028;2023-04-03T13:00:19;3.08;;;2.00;;
21243;SDS011;10780;50.942;4.028;2023-04-03T13:02:54;3.75;;;1.80;;
21243;SDS011;10780;50.942;4.028;2023-04-03T13:05:21;2.88;;;1.90;;
21243;SDS011;10780;50.942;4.028;2023-04-03T13:08:08;2.92;;;1.70;;
21243;SDS011;10780;50.942;4.028;2023-04-03T13:10:44;4.30;;;1.55;;
21243;SDS011;10780;50.942;4.028;2023-04-03T13:13:18;3.55;;;1.45;;
21243;SDS011;10780;50.942;4.028;2023-04-03T13:15:45;3.67;;;1.67;;
21243;SDS011;10780;50.942;4.028;2023-04-03T13:20:48;1.77;;;1.60;;
21243;SDS011;10780;50.942;4.028;2023-04-03T13:23:15;3.80;;;1.65;;
21243;SDS011;10780;50.942;4.028;2023-04-03T13:25:46;3.42;;;1.70;;
21243;SDS011;10780;50.942;4.028;2023-04-03T13:28:15;3.78;;;1.70;;
21243;SDS011;10780;50.942;4.028;2023-04-03T13:30:55;3.25;;;1.60;;
21243;SDS011;10780;50.942;4.028;2023-04-03T13:33:35;4.47;;;1.90;;
21243;SDS011;10780;50.942;4.028;2023-04-03T13:36:19;2.28;;;1.60;;
21243;SDS011;10780;50.942;4.028;2023-04-03T13:38:57;3.50;;;2.03;;
21243;SDS011;10780;50.942;4.028;2023-04-03T13:41:47;2.53;;;1.95;;
21243;SDS011;10780;50.942;4.028;2023-04-03T13:46:47;3.63;;;1.77;;
21243;SDS011;10780;50.942;4.028;2023-04-03T13:49:38;2.70;;;1.67;;
21243;SDS011;10780;50.942;4.028;2023-04-03T13:52:22;3.70;;;1.42;;
21243;SDS011;10780;50.942;4.028;2023-04-03T13:54:52;2.28;;;1.45;;
21243;SDS011;10780;50.942;4.028;2023-04-03T13:57:21;1.73;;;1.60;;
21243;SDS011;10780;50.942;4.028;2023-04-03T13:59:47;3.15;;;1.80;;
21243;SDS011;10780;50.942;4.028;2023-04-03T14:02:18;4.72;;;1.52;;
21243;SDS011;10780;50.942;4.028;2023-04-03T14:04:51;3.53;;;1.77;;
21243;SDS011;10780;50.942;4.028;2023-04-03T14:07:23;2.60;;;1.65;;
21243;SDS011;10780;50.942;4.028;2023-04-03T14:09:49;4.15;;;2.10;;
21243;SDS011;10780;50.942;4.028;2023-04-03T14:12:21;2.70;;;1.70;;
21243;SDS011;10780;50.942;4.028;2023-04-03T14:14:56;2.92;;;1.80;;
21243;SDS011;10780;50.942;4.028;2023-04-03T14:17:23;1.92;;;1.70;;
21243;SDS011;10780;50.942;4.028;2023-04-03T14:19:51;2.47;;;1.73;;
21243;SDS011;10780;50.942;4.028;2023-04-03T14:22:19;4.93;;;1.63;;
21243;SDS011;10780;50.942;4.028;2023-04-03T14:24:50;2.83;;;1.98;;
21243;SDS011;10780;50.942;4.028;2023-04-03T14:29:45;2.88;;;2.10;;
21243;SDS011;10780;50.942;4.028;2023-04-03T14:32:13;3.75;;;2.08;;
21243;SDS011;10780;50.942;4.028;2023-04-03T14:34:39;4.18;;;1.88;;
21243;SDS011;10780;50.942;4.028;2023-04-03T14:37:09;4.55;;;2.10;;
21243;SDS011;10780;50.942;4.028;2023-04-03T14:39:36;3.00;;;1.85;;
21243;SDS011;10780;50.942;4.028;2023-04-03T14:42:02;3.83;;;2.03;;
21243;SDS011;10780;50.942;4.028;2023-04-03T14:44:28;3.83;;;1.83;;
21243;SDS011;10780;50.942;4.028;2023-04-03T14:46:53;3.88;;;1.95;;
21243;SDS011;10780;50.942;4.028;2023-04-03T14:49:22;2.90;;;2.10;;
21243;SDS011;10780;50.942;4.028;2023-04-03T14:51:51;4.97;;;1.85;;
21243;SDS011;10780;50.942;4.028;2023-04-03T14:54:18;2.95;;;1.48;;
21243;SDS011;10780;50.942;4.028;2023-04-03T14:56:50;3.72;;;2.05;;
21243;SDS011;10780;50.942;4.028;2023-04-03T14:59:16;2.08;;;1.60;;
21243;SDS011;10780;50.942;4.028;2023-04-03T15:01:44;5.70;;;2.30;;
21243;SDS011;10780;50.942;4.028;2023-04-03T15:04:14;3.35;;;1.90;;
21243;SDS011;10780;50.942;4.028;2023-04-03T15:06:41;4.30;;;2.00;;
21243;SDS011;10780;50.942;4.028;2023-04-03T15:09:19;3.45;;;1.73;;
21243;SDS011;10780;50.942;4.028;2023-04-03T15:11:47;2.78;;;2.00;;
21243;SDS011;10780;50.942;4.028;2023-04-03T15:14:14;5.25;;;2.78;;
21243;SDS011;10780;50.942;4.028;2023-04-03T15:16:40;4.65;;;2.10;;
21243;SDS011;10780;50.942;4.028;2023-04-03T15:19:05;3.63;;;1.98;;
21243;SDS011;10780;50.942;4.028;2023-04-03T15:21:31;3.80;;;2.00;;
21243;SDS011;10780;50.942;4.028;2023-04-03T15:23:57;3.22;;;1.92;;
21243;SDS011;10780;50.942;4.028;2023-04-03T15:26:22;3.15;;;1.88;;
21243;SDS011;10780;50.942;4.028;2023-04-03T15:28:48;2.97;;;1.98;;
21243;SDS011;10780;50.942;4.028;2023-04-03T15:31:14;5.53;;;1.85;;
21243;SDS011;10780;50.942;4.028;2023-04-03T15:33:40;4.90;;;2.25;;
21243;SDS011;10780;50.942;4.028;2023-04-03T15:36:05;3.05;;;1.92;;
21243;SDS011;10780;50.942;4.028;2023-04-03T15:38:31;4.03;;;1.83;;
21243;SDS011;10780;50.942;4.028;2023-04-03T15:40:57;3.53;;;1.80;;
21243;SDS011;10780;50.942;4.028;2023-04-03T15:43:23;3.80;;;1.88;;
21243;SDS011;10780;50.942;4.028;2023-04-03T15:45:49;2.35;;;1.70;;
21243;SDS011;10780;50.942;4.028;2023-04-03T15:48:15;2.33;;;1.58;;
21243;SDS011;10780;50.942;4.028;2023-04-03T15:50:42;2.92;;;1.63;;
21243;SDS011;10780;50.942;4.028;2023-04-03T15:53:08;2.42;;;1.80;;
21243;SDS011;10780;50.942;4.028;2023-04-03T15:55:35;2.88;;;2.00;;
21243;SDS011;10780;50.942;4.028;2023-04-03T15:58:03;3.00;;;1.70;;
21243;SDS011;10780;50.942;4.028;2023-04-03T16:00:29;2.60;;;1.60;;
21243;SDS011;10780;50.942;4.028;2023-04-03T16:02:58;4.53;;;1.92;;
21243;SDS011;10780;50.942;4.028;2023-04-03T16:05:26;5.80;;;2.10;;
21243;SDS011;10780;50.942;4.028;2023-04-03T16:07:52;3.58;;;1.40;;
21243;SDS011;10780;50.942;4.028;2023-04-03T16:10:20;4.45;;;1.63;;
21243;SDS011;10780;50.942;4.028;2023-04-03T16:12:46;4.43;;;1.80;;
21243;SDS011;10780;50.942;4.028;2023-04-03T16:15:12;2.75;;;1.58;;
21243;SDS011;10780;50.942;4.028;2023-04-03T16:17:37;2.55;;;1.52;;
21243;SDS011;10780;50.942;4.028;2023-04-03T16:20:06;2.50;;;1.65;;
21243;SDS011;10780;50.942;4.028;2023-04-03T16:22:33;4.65;;;1.77;;